sensor_id;sensor_type;location;lat;lon;timestamp;P1;durP1;ratioP1;P2;durP2;ratioP2
4873;SDS011;2451;49.970;9.068;2022-12-13T00:00:14;50.35;;;22.98;;
4873;SDS011;2451;49.970;9.068;2022-12-13T00:02:42;46.45;;;21.35;;
4873;SDS011;2451;49.970;9.068;2022-12-13T00:05:08;40.03;;;21.00;;
4873;SDS011;2451;49.970;9.068;2022-12-13T00:07:34;42.60;;;21.27;;
4873;SDS011;2451;49.970;9.068;2022-12-13T00:10:00;41.33;;;21.33;;
4873;SDS011;2451;49.970;9.068;2022-12-13T00:12:27;42.70;;;21.88;;
4873;SDS011;2451;49.970;9.068;2022-12-13T00:14:52;43.83;;;21.05;;
4873;SDS011;2451;49.970;9.068;2022-12-13T00:17:18;40.88;;;20.55;;
4873;SDS011;2451;49.970;9.068;2022-12-13T00:19:45;48.00;;;20.20;;
4873;SDS011;2451;49.970;9.068;2022-12-13T00:22:11;44.13;;;20.17;;
4873;SDS011;2451;49.970;9.068;2022-12-13T00:24:37;42.42;;;20.73;;
4873;SDS011;2451;49.970;9.068;2022-12-13T00:27:03;39.20;;;19.05;;
4873;SDS011;2451;49.970;9.068;2022-12-13T00:29:29;42.40;;;20.77;;
4873;SDS011;2451;49.970;9.068;2022-12-13T00:31:54;39.72;;;20.83;;
4873;SDS011;2451;49.970;9.068;2022-12-13T00:34:20;39.72;;;19.33;;
4873;SDS011;2451;49.970;9.068;2022-12-13T00:36:46;40.72;;;19.70;;
4873;SDS011;2451;49.970;9.068;2022-12-13T00:39:12;44.35;;;20.90;;
4873;SDS011;2451;49.970;9.068;2022-12-13T00:41:40;40.30;;;19.98;;
4873;SDS011;2451;49.970;9.068;2022-12-13T00:44:08;38.05;;;19.05;;
4873;SDS011;2451;49.970;9.068;2022-12-13T00:46:35;40.90;;;20.52;;
4873;SDS011;2451;49.970;9.068;2022-12-13T00:49:01;38.28;;;19.70;;
4873;SDS011;2451;49.970;9.068;2022-12-13T00:51:28;42.45;;;20.58;;
4873;SDS011;2451;49.970;9.068;2022-12-13T00:53:55;44.83;;;20.75;;
4873;SDS011;2451;49.970;9.068;2022-12-13T00:56:22;40.95;;;20.05;;
4873;SDS011;2451;49.970;9.068;2022-12-13T00:58:49;39.38;;;19.25;;
4873;SDS011;2451;49.970;9.068;2022-12-13T01:01:16;38.40;;;19.15;;
4873;SDS011;2451;49.970;9.068;2022-12-13T01:03:43;36.92;;;18.63;;
4873;SDS011;2451;49.970;9.068;2022-12-13T01:06:11;41.63;;;18.55;;
4873;SDS011;2451;49.970;9.068;2022-12-13T01:08:45;39.58;;;19.35;;
4873;SDS011;2451;49.970;9.068;2022-12-13T01:11:11;41.15;;;19.13;;
4873;SDS011;2451;49.970;9.068;2022-12-13T01:13:38;41.70;;;18.63;;
4873;SDS011;2451;49.970;9.068;2022-12-13T01:16:05;37.15;;;18.42;;
4873;SDS011;2451;49.970;9.068;2022-12-13T01:18:32;42.03;;;18.58;;
4873;SDS011;2451;49.970;9.068;2022-12-13T01:21:03;38.03;;;17.55;;
4873;SDS011;2451;49.970;9.068;2022-12-13T01:23:31;35.60;;;17.98;;
4873;SDS011;2451;49.970;9.068;2022-12-13T01:25:57;39.35;;;18.75;;
4873;SDS011;2451;49.970;9.068;2022-12-13T01:28:23;38.38;;;18.10;;
4873;SDS011;2451;49.970;9.068;2022-12-13T01:30:59;40.22;;;18.95;;
4873;SDS011;2451;49.970;9.068;2022-12-13T01:33:27;34.45;;;17.45;;
4873;SDS011;2451;49.970;9.068;2022-12-13T01:35:53;34.97;;;16.73;;
4873;SDS011;2451;49.970;9.068;2022-12-13T01:38:20;37.28;;;18.00;;
4873;SDS011;2451;49.970;9.068;2022-12-13T01:40:47;33.78;;;17.55;;
4873;SDS011;2451;49.970;9.068;2022-12-13T01:43:24;36.33;;;17.48;;
4873;SDS011;2451;49.970;9.068;2022-12-13T01:46:05;32.85;;;16.45;;
4873;SDS011;2451;49.970;9.068;2022-12-13T01:48:32;35.83;;;17.23;;
4873;SDS011;2451;49.970;9.068;2022-12-13T01:51:03;39.42;;;17.45;;
4873;SDS011;2451;49.970;9.068;2022-12-13T01:53:31;34.47;;;16.95;;
4873;SDS011;2451;49.970;9.068;2022-12-13T01:56:21;38.55;;;19.20;;
4873;SDS011;2451;49.970;9.068;2022-12-13T01:58:47;35.22;;;16.98;;
4873;SDS011;2451;49.970;9.068;2022-12-13T02:01:15;35.05;;;17.00;;
4873;SDS011;2451;49.970;9.068;2022-12-13T02:03:42;32.70;;;16.45;;
4873;SDS011;2451;49.970;9.068;2022-12-13T02:06:10;34.13;;;16.60;;
4873;SDS011;2451;49.970;9.068;2022-12-13T02:08:57;35.55;;;16.75;;
4873;SDS011;2451;49.970;9.068;2022-12-13T02:11:24;37.33;;;17.23;;
4873;SDS011;2451;49.970;9.068;2022-12-13T02:13:51;38.08;;;17.25;;
4873;SDS011;2451;49.970;9.068;2022-12-13T02:21:53;36.90;;;16.85;;
4873;SDS011;2451;49.970;9.068;2022-12-13T02:24:30;38.22;;;17.38;;
4873;SDS011;2451;49.970;9.068;2022-12-13T02:27:09;36.50;;;16.60;;
4873;SDS011;2451;49.970;9.068;2022-12-13T02:29:50;42.30;;;18.17;;
4873;SDS011;2451;49.970;9.068;2022-12-13T02:32:55;37.78;;;16.98;;
4873;SDS011;2451;49.970;9.068;2022-12-13T02:35:38;36.95;;;17.23;;
4873;SDS011;2451;49.970;9.068;2022-12-13T02:38:49;33.88;;;15.98;;
4873;SDS011;2451;49.970;9.068;2022-12-13T02:43:44;36.67;;;17.42;;
4873;SDS011;2451;49.970;9.068;2022-12-13T02:46:33;31.60;;;16.02;;
4873;SDS011;2451;49.970;9.068;2022-12-13T02:49:03;37.08;;;16.10;;
4873;SDS011;2451;49.970;9.068;2022-12-13T02:51:31;35.03;;;17.08;;
4873;SDS011;2451;49.970;9.068;2022-12-13T02:53:58;31.52;;;15.50;;
4873;SDS011;2451;49.970;9.068;2022-12-13T02:56:24;35.90;;;16.35;;
4873;SDS011;2451;49.970;9.068;2022-12-13T02:58:51;35.63;;;17.10;;
4873;SDS011;2451;49.970;9.068;2022-12-13T03:01:30;36.80;;;16.70;;
4873;SDS011;2451;49.970;9.068;2022-12-13T03:14:48;33.42;;;16.33;;
4873;SDS011;2451;49.970;9.068;2022-12-13T03:17:46;36.55;;;17.13;;
4873;SDS011;2451;49.970;9.068;2022-12-13T03:20:52;34.78;;;16.23;;
4873;SDS011;2451;49.970;9.068;2022-12-13T03:23:26;31.08;;;16.55;;
4873;SDS011;2451;49.970;9.068;2022-12-13T03:25:53;37.10;;;15.88;;
4873;SDS011;2451;49.970;9.068;2022-12-13T03:28:20;35.45;;;16.45;;
4873;SDS011;2451;49.970;9.068;2022-12-13T03:30:46;30.15;;;15.52;;
4873;SDS011;2451;49.970;9.068;2022-12-13T03:33:13;34.00;;;16.65;;
4873;SDS011;2451;49.970;9.068;2022-12-13T03:35:39;33.28;;;15.73;;
4873;SDS011;2451;49.970;9.068;2022-12-13T03:38:07;33.78;;;16.70;;
4873;SDS011;2451;49.970;9.068;2022-12-13T03:40:33;34.38;;;16.25;;
4873;SDS011;2451;49.970;9.068;2022-12-13T03:42:59;37.33;;;16.25;;
4873;SDS011;2451;49.970;9.068;2022-12-13T03:45:25;32.92;;;16.67;;
4873;SDS011;2451;49.970;9.068;2022-12-13T03:47:51;38.08;;;17.42;;
4873;SDS011;2451;49.970;9.068;2022-12-13T03:50:17;36.55;;;17.38;;
4873;SDS011;2451;49.970;9.068;2022-12-13T03:52:43;37.25;;;16.38;;
4873;SDS011;2451;49.970;9.068;2022-12-13T03:55:08;33.05;;;15.30;;
4873;SDS011;2451;49.970;9.068;2022-12-13T03:57:34;28.67;;;14.52;;
4873;SDS011;2451;49.970;9.068;2022-12-13T04:00:00;32.75;;;15.52;;
4873;SDS011;2451;49.970;9.068;2022-12-13T04:02:26;30.75;;;14.93;;
4873;SDS011;2451;49.970;9.068;2022-12-13T04:04:51;32.63;;;15.68;;
4873;SDS011;2451;49.970;9.068;2022-12-13T04:07:17;35.78;;;16.90;;
4873;SDS011;2451;49.970;9.068;2022-12-13T04:09:43;33.42;;;16.30;;
4873;SDS011;2451;49.970;9.068;2022-12-13T04:12:09;34.08;;;15.95;;
4873;SDS011;2451;49.970;9.068;2022-12-13T04:14:53;36.83;;;15.63;;
4873;SDS011;2451;49.970;9.068;2022-12-13T04:17:19;33.47;;;16.02;;
4873;SDS011;2451;49.970;9.068;2022-12-13T04:19:44;30.15;;;15.43;;
4873;SDS011;2451;49.970;9.068;2022-12-13T04:22:10;30.55;;;15.13;;
4873;SDS011;2451;49.970;9.068;2022-12-13T04:24:36;31.35;;;14.98;;
4873;SDS011;2451;49.970;9.068;2022-12-13T04:27:01;33.83;;;15.68;;
4873;SDS011;2451;49.970;9.068;2022-12-13T04:29:28;34.72;;;15.30;;
4873;SDS011;2451;49.970;9.068;2022-12-13T04:31:54;32.63;;;15.55;;
4873;SDS011;2451;49.970;9.068;2022-12-13T04:34:20;30.67;;;15.85;;
4873;SDS011;2451;49.970;9.068;2022-12-13T04:36:45;30.98;;;16.40;;
4873;SDS011;2451;49.970;9.068;2022-12-13T04:39:11;31.90;;;14.75;;
4873;SDS011;2451;49.970;9.068;2022-12-13T04:41:37;33.45;;;15.82;;
4873;SDS011;2451;49.970;9.068;2022-12-13T04:44:04;35.42;;;15.52;;
4873;SDS011;2451;49.970;9.068;2022-12-13T04:46:31;33.65;;;15.55;;
4873;SDS011;2451;49.970;9.068;2022-12-13T04:48:57;32.40;;;15.35;;
4873;SDS011;2451;49.970;9.068;2022-12-13T04:51:22;31.60;;;16.20;;
4873;SDS011;2451;49.970;9.068;2022-12-13T04:53:48;34.22;;;15.88;;
4873;SDS011;2451;49.970;9.068;2022-12-13T04:56:14;31.75;;;14.77;;
4873;SDS011;2451;49.970;9.068;2022-12-13T04:58:40;36.78;;;16.10;;
4873;SDS011;2451;49.970;9.068;2022-12-13T05:01:06;33.08;;;16.05;;
4873;SDS011;2451;49.970;9.068;2022-12-13T05:03:33;35.00;;;15.65;;
4873;SDS011;2451;49.970;9.068;2022-12-13T05:06:02;36.42;;;16.10;;
4873;SDS011;2451;49.970;9.068;2022-12-13T05:08:29;35.33;;;14.60;;
4873;SDS011;2451;49.970;9.068;2022-12-13T05:10:54;34.20;;;16.63;;
4873;SDS011;2451;49.970;9.068;2022-12-13T05:13:20;35.85;;;17.55;;
4873;SDS011;2451;49.970;9.068;2022-12-13T05:15:45;37.25;;;18.55;;
4873;SDS011;2451;49.970;9.068;2022-12-13T05:18:18;37.95;;;18.15;;
4873;SDS011;2451;49.970;9.068;2022-12-13T05:20:43;38.45;;;17.73;;
4873;SDS011;2451;49.970;9.068;2022-12-13T05:23:09;38.17;;;18.13;;
4873;SDS011;2451;49.970;9.068;2022-12-13T05:25:34;37.53;;;17.98;;
4873;SDS011;2451;49.970;9.068;2022-12-13T05:28:00;35.33;;;16.98;;
4873;SDS011;2451;49.970;9.068;2022-12-13T05:30:26;34.10;;;16.70;;
4873;SDS011;2451;49.970;9.068;2022-12-13T05:32:51;35.03;;;16.27;;
4873;SDS011;2451;49.970;9.068;2022-12-13T05:35:17;29.90;;;15.68;;
4873;SDS011;2451;49.970;9.068;2022-12-13T05:37:43;32.67;;;15.90;;
4873;SDS011;2451;49.970;9.068;2022-12-13T05:40:08;38.80;;;17.70;;
4873;SDS011;2451;49.970;9.068;2022-12-13T05:42:35;33.63;;;16.33;;
4873;SDS011;2451;49.970;9.068;2022-12-13T05:45:02;33.15;;;16.08;;
4873;SDS011;2451;49.970;9.068;2022-12-13T05:47:29;34.85;;;16.10;;
4873;SDS011;2451;49.970;9.068;2022-12-13T05:49:54;34.55;;;15.40;;
4873;SDS011;2451;49.970;9.068;2022-12-13T05:52:20;32.25;;;15.68;;
4873;SDS011;2451;49.970;9.068;2022-12-13T05:54:46;34.75;;;15.88;;
4873;SDS011;2451;49.970;9.068;2022-12-13T05:57:12;32.65;;;15.23;;
4873;SDS011;2451;49.970;9.068;2022-12-13T05:59:38;36.08;;;16.27;;
4873;SDS011;2451;49.970;9.068;2022-12-13T06:02:04;37.85;;;17.50;;
4873;SDS011;2451;49.970;9.068;2022-12-13T06:04:30;37.95;;;17.95;;
4873;SDS011;2451;49.970;9.068;2022-12-13T06:06:55;35.75;;;17.23;;
4873;SDS011;2451;49.970;9.068;2022-12-13T06:09:21;39.03;;;17.42;;
4873;SDS011;2451;49.970;9.068;2022-12-13T06:11:47;35.85;;;17.85;;
4873;SDS011;2451;49.970;9.068;2022-12-13T06:14:14;39.63;;;17.30;;
4873;SDS011;2451;49.970;9.068;2022-12-13T06:16:40;35.75;;;17.45;;
4873;SDS011;2451;49.970;9.068;2022-12-13T06:19:06;36.35;;;18.17;;
4873;SDS011;2451;49.970;9.068;2022-12-13T06:21:32;34.40;;;16.70;;
4873;SDS011;2451;49.970;9.068;2022-12-13T06:23:58;37.60;;;17.15;;
4873;SDS011;2451;49.970;9.068;2022-12-13T06:26:24;36.08;;;17.60;;
4873;SDS011;2451;49.970;9.068;2022-12-13T06:28:49;36.65;;;18.00;;
4873;SDS011;2451;49.970;9.068;2022-12-13T06:31:15;34.78;;;17.83;;
4873;SDS011;2451;49.970;9.068;2022-12-13T06:33:41;39.95;;;18.63;;
4873;SDS011;2451;49.970;9.068;2022-12-13T06:36:07;39.22;;;18.80;;
4873;SDS011;2451;49.970;9.068;2022-12-13T06:38:33;36.92;;;16.90;;
4873;SDS011;2451;49.970;9.068;2022-12-13T06:41:08;40.58;;;18.33;;
4873;SDS011;2451;49.970;9.068;2022-12-13T06:43:36;37.47;;;19.38;;
4873;SDS011;2451;49.970;9.068;2022-12-13T06:46:04;44.78;;;19.00;;
4873;SDS011;2451;49.970;9.068;2022-12-13T06:48:30;45.10;;;19.85;;
4873;SDS011;2451;49.970;9.068;2022-12-13T06:50:59;39.63;;;18.55;;
4873;SDS011;2451;49.970;9.068;2022-12-13T06:53:28;40.58;;;18.50;;
4873;SDS011;2451;49.970;9.068;2022-12-13T06:55:54;45.35;;;21.20;;
4873;SDS011;2451;49.970;9.068;2022-12-13T06:58:20;36.88;;;18.27;;
4873;SDS011;2451;49.970;9.068;2022-12-13T07:00:46;38.15;;;19.67;;
4873;SDS011;2451;49.970;9.068;2022-12-13T07:03:11;43.55;;;21.40;;
4873;SDS011;2451;49.970;9.068;2022-12-13T07:05:37;42.40;;;22.80;;
4873;SDS011;2451;49.970;9.068;2022-12-13T07:08:03;42.28;;;21.60;;
4873;SDS011;2451;49.970;9.068;2022-12-13T07:10:29;45.50;;;21.90;;
4873;SDS011;2451;49.970;9.068;2022-12-13T07:12:56;41.50;;;21.67;;
4873;SDS011;2451;49.970;9.068;2022-12-13T07:15:21;39.63;;;21.48;;
4873;SDS011;2451;49.970;9.068;2022-12-13T07:17:48;41.38;;;21.40;;
4873;SDS011;2451;49.970;9.068;2022-12-13T07:20:15;44.50;;;22.05;;
4873;SDS011;2451;49.970;9.068;2022-12-13T07:22:43;48.60;;;23.10;;
4873;SDS011;2451;49.970;9.068;2022-12-13T07:25:08;50.80;;;23.45;;
4873;SDS011;2451;49.970;9.068;2022-12-13T07:27:34;52.05;;;23.65;;
4873;SDS011;2451;49.970;9.068;2022-12-13T07:30:00;47.08;;;22.83;;
4873;SDS011;2451;49.970;9.068;2022-12-13T07:32:28;56.80;;;25.65;;
4873;SDS011;2451;49.970;9.068;2022-12-13T07:34:53;49.92;;;23.10;;
4873;SDS011;2451;49.970;9.068;2022-12-13T07:37:19;48.13;;;21.48;;
4873;SDS011;2451;49.970;9.068;2022-12-13T07:39:45;41.33;;;20.27;;
4873;SDS011;2451;49.970;9.068;2022-12-13T07:42:10;44.08;;;20.25;;
4873;SDS011;2451;49.970;9.068;2022-12-13T07:44:36;40.42;;;20.20;;
4873;SDS011;2451;49.970;9.068;2022-12-13T07:47:02;37.30;;;19.25;;
4873;SDS011;2451;49.970;9.068;2022-12-13T07:49:27;44.65;;;19.80;;
4873;SDS011;2451;49.970;9.068;2022-12-13T07:51:53;41.70;;;18.85;;
4873;SDS011;2451;49.970;9.068;2022-12-13T07:54:18;41.40;;;20.23;;
4873;SDS011;2451;49.970;9.068;2022-12-13T07:56:44;38.30;;;18.70;;
4873;SDS011;2451;49.970;9.068;2022-12-13T07:59:10;39.05;;;18.55;;
4873;SDS011;2451;49.970;9.068;2022-12-13T08:01:35;45.95;;;21.60;;
4873;SDS011;2451;49.970;9.068;2022-12-13T08:04:01;37.95;;;19.52;;
4873;SDS011;2451;49.970;9.068;2022-12-13T08:06:27;37.70;;;19.23;;
4873;SDS011;2451;49.970;9.068;2022-12-13T08:08:56;41.70;;;19.88;;
4873;SDS011;2451;49.970;9.068;2022-12-13T08:11:22;35.22;;;19.00;;
4873;SDS011;2451;49.970;9.068;2022-12-13T08:13:48;37.30;;;17.90;;
4873;SDS011;2451;49.970;9.068;2022-12-13T08:16:13;32.20;;;16.30;;
4873;SDS011;2451;49.970;9.068;2022-12-13T08:18:42;31.73;;;16.23;;
4873;SDS011;2451;49.970;9.068;2022-12-13T08:21:08;41.78;;;19.90;;
4873;SDS011;2451;49.970;9.068;2022-12-13T08:23:33;38.38;;;19.02;;
4873;SDS011;2451;49.970;9.068;2022-12-13T08:26:00;34.95;;;17.70;;
4873;SDS011;2451;49.970;9.068;2022-12-13T08:28:27;32.80;;;16.90;;
4873;SDS011;2451;49.970;9.068;2022-12-13T08:30:54;35.63;;;17.38;;
4873;SDS011;2451;49.970;9.068;2022-12-13T08:33:25;35.33;;;15.95;;
4873;SDS011;2451;49.970;9.068;2022-12-13T08:35:51;36.05;;;18.08;;
4873;SDS011;2451;49.970;9.068;2022-12-13T08:38:17;32.65;;;16.63;;
4873;SDS011;2451;49.970;9.068;2022-12-13T08:40:42;30.42;;;15.25;;
4873;SDS011;2451;49.970;9.068;2022-12-13T08:43:08;34.50;;;17.00;;
4873;SDS011;2451;49.970;9.068;2022-12-13T08:45:33;38.30;;;19.73;;
4873;SDS011;2451;49.970;9.068;2022-12-13T08:48:00;40.30;;;20.13;;
4873;SDS011;2451;49.970;9.068;2022-12-13T08:50:26;41.10;;;21.80;;
4873;SDS011;2451;49.970;9.068;2022-12-13T08:52:53;41.28;;;20.98;;
4873;SDS011;2451;49.970;9.068;2022-12-13T08:55:19;42.10;;;21.63;;
4873;SDS011;2451;49.970;9.068;2022-12-13T08:57:44;45.90;;;22.67;;
4873;SDS011;2451;49.970;9.068;2022-12-13T09:00:14;43.17;;;22.80;;
4873;SDS011;2451;49.970;9.068;2022-12-13T09:02:42;45.17;;;23.00;;
4873;SDS011;2451;49.970;9.068;2022-12-13T09:05:08;37.00;;;20.10;;
4873;SDS011;2451;49.970;9.068;2022-12-13T09:07:35;36.63;;;19.08;;
4873;SDS011;2451;49.970;9.068;2022-12-13T09:10:01;42.28;;;18.27;;
4873;SDS011;2451;49.970;9.068;2022-12-13T09:12:27;36.15;;;18.92;;
4873;SDS011;2451;49.970;9.068;2022-12-13T09:14:52;36.70;;;19.20;;
4873;SDS011;2451;49.970;9.068;2022-12-13T09:17:18;38.85;;;18.75;;
4873;SDS011;2451;49.970;9.068;2022-12-13T09:19:44;38.92;;;20.00;;
4873;SDS011;2451;49.970;9.068;2022-12-13T09:22:10;43.75;;;22.38;;
4873;SDS011;2451;49.970;9.068;2022-12-13T09:24:36;37.63;;;20.92;;
4873;SDS011;2451;49.970;9.068;2022-12-13T09:27:05;35.22;;;19.98;;
4873;SDS011;2451;49.970;9.068;2022-12-13T09:29:31;36.97;;;18.83;;
4873;SDS011;2451;49.970;9.068;2022-12-13T09:31:58;37.05;;;18.50;;
4873;SDS011;2451;49.970;9.068;2022-12-13T09:34:24;38.85;;;19.17;;
4873;SDS011;2451;49.970;9.068;2022-12-13T09:36:49;35.28;;;18.05;;
4873;SDS011;2451;49.970;9.068;2022-12-13T09:39:15;33.38;;;17.95;;
4873;SDS011;2451;49.970;9.068;2022-12-13T09:41:47;35.00;;;19.15;;
4873;SDS011;2451;49.970;9.068;2022-12-13T09:46:52;34.67;;;18.05;;
4873;SDS011;2451;49.970;9.068;2022-12-13T09:49:30;32.78;;;17.92;;
4873;SDS011;2451;49.970;9.068;2022-12-13T09:52:02;30.63;;;17.20;;
4873;SDS011;2451;49.970;9.068;2022-12-13T09:54:30;32.83;;;17.10;;
4873;SDS011;2451;49.970;9.068;2022-12-13T09:56:57;31.20;;;18.13;;
4873;SDS011;2451;49.970;9.068;2022-12-13T09:59:30;32.92;;;18.50;;
4873;SDS011;2451;49.970;9.068;2022-12-13T10:02:06;33.00;;;17.35;;
4873;SDS011;2451;49.970;9.068;2022-12-13T10:05:33;35.03;;;20.70;;
4873;SDS011;2451;49.970;9.068;2022-12-13T10:07:53;36.10;;;19.55;;
4873;SDS011;2451;49.970;9.068;2022-12-13T10:10:21;33.63;;;18.57;;
4873;SDS011;2451;49.970;9.068;2022-12-13T10:12:52;31.42;;;19.02;;
4873;SDS011;2451;49.970;9.068;2022-12-13T10:15:21;31.20;;;17.85;;
4873;SDS011;2451;49.970;9.068;2022-12-13T10:17:48;31.80;;;18.65;;
4873;SDS011;2451;49.970;9.068;2022-12-13T10:20:15;34.25;;;17.08;;
4873;SDS011;2451;49.970;9.068;2022-12-13T10:22:45;26.30;;;15.93;;
4873;SDS011;2451;49.970;9.068;2022-12-13T10:25:11;29.55;;;15.00;;
4873;SDS011;2451;49.970;9.068;2022-12-13T10:32:33;23.23;;;13.98;;
4873;SDS011;2451;49.970;9.068;2022-12-13T10:37:52;28.08;;;16.67;;
4873;SDS011;2451;49.970;9.068;2022-12-13T10:40:38;28.05;;;17.17;;
4873;SDS011;2451;49.970;9.068;2022-12-13T10:43:12;30.15;;;17.27;;
4873;SDS011;2451;49.970;9.068;2022-12-13T10:48:23;27.30;;;17.17;;
4873;SDS011;2451;49.970;9.068;2022-12-13T10:51:01;28.70;;;17.42;;
4873;SDS011;2451;49.970;9.068;2022-12-13T10:53:30;32.15;;;18.83;;
4873;SDS011;2451;49.970;9.068;2022-12-13T10:55:59;28.85;;;17.75;;
4873;SDS011;2451;49.970;9.068;2022-12-13T10:58:33;28.88;;;17.10;;
4873;SDS011;2451;49.970;9.068;2022-12-13T11:01:08;30.40;;;17.50;;
4873;SDS011;2451;49.970;9.068;2022-12-13T11:03:39;30.03;;;17.00;;
4873;SDS011;2451;49.970;9.068;2022-12-13T11:06:06;28.25;;;17.13;;
4873;SDS011;2451;49.970;9.068;2022-12-13T11:08:36;29.38;;;17.30;;
4873;SDS011;2451;49.970;9.068;2022-12-13T11:11:03;27.73;;;16.73;;
4873;SDS011;2451;49.970;9.068;2022-12-13T11:13:34;25.20;;;17.08;;
4873;SDS011;2451;49.970;9.068;2022-12-13T11:16:19;28.45;;;16.88;;
4873;SDS011;2451;49.970;9.068;2022-12-13T11:18:52;26.38;;;16.73;;
4873;SDS011;2451;49.970;9.068;2022-12-13T11:21:22;30.17;;;16.98;;
4873;SDS011;2451;49.970;9.068;2022-12-13T11:24:01;30.40;;;19.13;;
4873;SDS011;2451;49.970;9.068;2022-12-13T11:26:30;30.50;;;17.85;;
4873;SDS011;2451;49.970;9.068;2022-12-13T11:36:57;30.58;;;18.90;;
4873;SDS011;2451;49.970;9.068;2022-12-13T11:39:31;25.40;;;16.40;;
4873;SDS011;2451;49.970;9.068;2022-12-13T11:47:37;23.80;;;15.07;;
4873;SDS011;2451;49.970;9.068;2022-12-13T11:50:30;28.65;;;16.25;;
4873;SDS011;2451;49.970;9.068;2022-12-13T11:56:12;28.35;;;16.80;;
4873;SDS011;2451;49.970;9.068;2022-12-13T12:04:36;28.00;;;17.42;;
4873;SDS011;2451;49.970;9.068;2022-12-13T12:07:13;27.20;;;16.55;;
4873;SDS011;2451;49.970;9.068;2022-12-13T12:09:52;28.40;;;18.08;;
4873;SDS011;2451;49.970;9.068;2022-12-13T12:12:29;24.20;;;14.80;;
4873;SDS011;2451;49.970;9.068;2022-12-13T12:17:37;24.65;;;15.60;;
4873;SDS011;2451;49.970;9.068;2022-12-13T12:20:04;26.65;;;16.05;;
4873;SDS011;2451;49.970;9.068;2022-12-13T12:36:58;24.83;;;15.20;;
4873;SDS011;2451;49.970;9.068;2022-12-13T12:58:08;20.52;;;14.13;;
4873;SDS011;2451;49.970;9.068;2022-12-13T13:00:59;24.13;;;14.25;;
4873;SDS011;2451;49.970;9.068;2022-12-13T13:03:37;22.02;;;13.77;;
4873;SDS011;2451;49.970;9.068;2022-12-13T13:06:08;24.73;;;14.70;;
4873;SDS011;2451;49.970;9.068;2022-12-13T13:11:04;22.13;;;14.02;;
4873;SDS011;2451;49.970;9.068;2022-12-13T13:16:02;28.10;;;17.05;;
4873;SDS011;2451;49.970;9.068;2022-12-13T13:18:42;34.90;;;20.23;;
4873;SDS011;2451;49.970;9.068;2022-12-13T13:29:27;22.83;;;14.23;;
4873;SDS011;2451;49.970;9.068;2022-12-13T13:34:28;25.08;;;14.73;;
4873;SDS011;2451;49.970;9.068;2022-12-13T13:36:55;20.27;;;11.90;;
4873;SDS011;2451;49.970;9.068;2022-12-13T13:42:17;16.25;;;10.38;;
4873;SDS011;2451;49.970;9.068;2022-12-13T13:44:54;23.48;;;9.93;;
4873;SDS011;2451;49.970;9.068;2022-12-13T13:50:13;19.33;;;10.07;;
4873;SDS011;2451;49.970;9.068;2022-12-13T13:55:53;17.10;;;8.77;;
4873;SDS011;2451;49.970;9.068;2022-12-13T13:58:41;17.73;;;8.98;;
4873;SDS011;2451;49.970;9.068;2022-12-13T14:01:15;18.17;;;8.55;;
4873;SDS011;2451;49.970;9.068;2022-12-13T14:12:34;13.43;;;7.25;;
4873;SDS011;2451;49.970;9.068;2022-12-13T14:15:42;13.85;;;7.53;;
4873;SDS011;2451;49.970;9.068;2022-12-13T14:21:41;13.65;;;7.90;;
4873;SDS011;2451;49.970;9.068;2022-12-13T14:24:26;16.33;;;8.13;;
4873;SDS011;2451;49.970;9.068;2022-12-13T14:27:18;14.63;;;7.38;;
4873;SDS011;2451;49.970;9.068;2022-12-13T14:29:52;17.40;;;7.78;;
4873;SDS011;2451;49.970;9.068;2022-12-13T14:32:23;16.80;;;8.13;;
4873;SDS011;2451;49.970;9.068;2022-12-13T14:34:49;17.52;;;8.80;;
4873;SDS011;2451;49.970;9.068;2022-12-13T14:37:28;19.55;;;8.07;;
4873;SDS011;2451;49.970;9.068;2022-12-13T14:39:58;16.45;;;8.00;;
4873;SDS011;2451;49.970;9.068;2022-12-13T14:42:29;17.02;;;8.07;;
4873;SDS011;2451;49.970;9.068;2022-12-13T14:45:12;15.65;;;8.35;;
4873;SDS011;2451;49.970;9.068;2022-12-13T14:47:41;18.13;;;9.82;;
4873;SDS011;2451;49.970;9.068;2022-12-13T14:50:07;20.58;;;8.60;;
4873;SDS011;2451;49.970;9.068;2022-12-13T14:52:36;18.17;;;9.18;;
4873;SDS011;2451;49.970;9.068;2022-12-13T14:55:04;17.48;;;10.07;;
4873;SDS011;2451;49.970;9.068;2022-12-13T14:57:31;21.08;;;10.10;;
4873;SDS011;2451;49.970;9.068;2022-12-13T14:59:59;25.10;;;9.93;;
4873;SDS011;2451;49.970;9.068;2022-12-13T15:02:49;18.27;;;9.70;;
4873;SDS011;2451;49.970;9.068;2022-12-13T15:05:18;16.38;;;8.55;;
4873;SDS011;2451;49.970;9.068;2022-12-13T15:07:49;20.38;;;9.93;;
4873;SDS011;2451;49.970;9.068;2022-12-13T15:10:25;19.80;;;10.10;;
4873;SDS011;2451;49.970;9.068;2022-12-13T15:12:57;20.33;;;9.85;;
4873;SDS011;2451;49.970;9.068;2022-12-13T15:15:28;22.70;;;9.65;;
4873;SDS011;2451;49.970;9.068;2022-12-13T15:20:38;15.95;;;8.40;;
4873;SDS011;2451;49.970;9.068;2022-12-13T15:28:52;23.30;;;11.20;;
4873;SDS011;2451;49.970;9.068;2022-12-13T15:31:19;20.42;;;11.15;;
4873;SDS011;2451;49.970;9.068;2022-12-13T15:33:45;23.23;;;9.52;;
4873;SDS011;2451;49.970;9.068;2022-12-13T15:36:18;19.30;;;9.55;;
4873;SDS011;2451;49.970;9.068;2022-12-13T15:44:02;19.15;;;8.98;;
4873;SDS011;2451;49.970;9.068;2022-12-13T15:46:32;21.27;;;10.35;;
4873;SDS011;2451;49.970;9.068;2022-12-13T15:49:02;17.02;;;9.32;;
4873;SDS011;2451;49.970;9.068;2022-12-13T15:51:28;16.63;;;9.15;;
4873;SDS011;2451;49.970;9.068;2022-12-13T15:56:39;22.65;;;10.45;;
4873;SDS011;2451;49.970;9.068;2022-12-13T15:59:32;21.27;;;10.50;;
4873;SDS011;2451;49.970;9.068;2022-12-13T16:01:59;23.05;;;12.20;;
4873;SDS011;2451;49.970;9.068;2022-12-13T16:04:27;19.40;;;11.05;;
4873;SDS011;2451;49.970;9.068;2022-12-13T16:06:54;20.02;;;10.13;;
4873;SDS011;2451;49.970;9.068;2022-12-13T16:09:22;20.27;;;11.10;;
4873;SDS011;2451;49.970;9.068;2022-12-13T16:17:05;21.35;;;11.40;;
4873;SDS011;2451;49.970;9.068;2022-12-13T16:19:39;22.08;;;10.43;;
4873;SDS011;2451;49.970;9.068;2022-12-13T16:22:05;22.35;;;10.38;;
4873;SDS011;2451;49.970;9.068;2022-12-13T16:24:30;20.67;;;10.55;;
4873;SDS011;2451;49.970;9.068;2022-12-13T16:26:56;20.48;;;11.23;;
4873;SDS011;2451;49.970;9.068;2022-12-13T16:29:21;19.75;;;10.25;;
4873;SDS011;2451;49.970;9.068;2022-12-13T16:31:47;17.05;;;9.45;;
4873;SDS011;2451;49.970;9.068;2022-12-13T16:34:13;18.33;;;9.80;;
4873;SDS011;2451;49.970;9.068;2022-12-13T16:36:41;18.80;;;9.73;;
4873;SDS011;2451;49.970;9.068;2022-12-13T16:39:09;18.05;;;9.73;;
4873;SDS011;2451;49.970;9.068;2022-12-13T16:41:39;19.55;;;9.40;;
4873;SDS011;2451;49.970;9.068;2022-12-13T16:44:08;22.52;;;10.32;;
4873;SDS011;2451;49.970;9.068;2022-12-13T16:46:39;18.13;;;9.98;;
4873;SDS011;2451;49.970;9.068;2022-12-13T16:49:27;20.27;;;10.75;;
4873;SDS011;2451;49.970;9.068;2022-12-13T16:51:52;21.55;;;12.30;;
4873;SDS011;2451;49.970;9.068;2022-12-13T16:54:19;19.15;;;11.32;;
4873;SDS011;2451;49.970;9.068;2022-12-13T16:56:45;23.92;;;11.85;;
4873;SDS011;2451;49.970;9.068;2022-12-13T16:59:12;22.55;;;11.40;;
4873;SDS011;2451;49.970;9.068;2022-12-13T17:01:39;22.65;;;11.23;;
4873;SDS011;2451;49.970;9.068;2022-12-13T17:04:08;24.90;;;12.70;;
4873;SDS011;2451;49.970;9.068;2022-12-13T17:06:34;19.02;;;10.27;;
4873;SDS011;2451;49.970;9.068;2022-12-13T17:09:00;23.50;;;11.77;;
4873;SDS011;2451;49.970;9.068;2022-12-13T17:11:25;42.22;;;14.23;;
4873;SDS011;2451;49.970;9.068;2022-12-13T17:13:51;26.45;;;14.05;;
4873;SDS011;2451;49.970;9.068;2022-12-13T17:16:17;26.17;;;13.27;;
4873;SDS011;2451;49.970;9.068;2022-12-13T17:18:42;27.45;;;14.00;;
4873;SDS011;2451;49.970;9.068;2022-12-13T17:21:08;29.70;;;14.38;;
4873;SDS011;2451;49.970;9.068;2022-12-13T17:23:34;29.50;;;15.23;;
4873;SDS011;2451;49.970;9.068;2022-12-13T17:26:04;25.33;;;13.82;;
4873;SDS011;2451;49.970;9.068;2022-12-13T17:28:30;23.17;;;12.07;;